createdAt,value
2019-02-27T00:01:58.701Z,99.90
2019-02-27T00:04:27.726Z,99.90
2019-02-27T00:06:56.715Z,99.90
2019-02-27T00:09:25.551Z,99.90
2019-02-27T00:11:54.529Z,99.90
2019-02-27T00:14:23.456Z,99.90
2019-02-27T00:16:52.387Z,99.90
2019-02-27T00:19:21.405Z,99.90
2019-02-27T00:21:50.365Z,99.90
2019-02-27T00:24:19.330Z,99.90
2019-02-27T00:26:48.501Z,99.90
2019-02-27T00:29:17.506Z,99.90
2019-02-27T00:31:46.458Z,99.90
2019-02-27T00:34:15.366Z,99.90
2019-02-27T00:36:45.093Z,99.90
2019-02-27T00:39:14.907Z,99.90
2019-02-27T00:41:46.070Z,99.90
2019-02-27T00:44:14.603Z,99.90
2019-02-27T00:46:43.955Z,99.90
2019-02-27T00:49:14.321Z,99.90
2019-02-27T00:51:44.890Z,99.90
2019-02-27T00:54:14.353Z,99.90
2019-02-27T00:56:45.133Z,99.90
2019-02-27T00:59:14.029Z,99.90
2019-02-27T01:01:47.259Z,99.90
2019-02-27T01:04:13.750Z,99.90
2019-02-27T01:06:45.020Z,99.90
2019-02-27T01:09:13.426Z,99.90
2019-02-27T01:11:42.310Z,99.90
2019-02-27T01:14:11.227Z,99.90
2019-02-27T01:16:40.146Z,99.90
2019-02-27T01:19:09.118Z,99.90
2019-02-27T01:21:38.098Z,99.90
2019-02-27T01:24:07.095Z,99.90
2019-02-27T01:26:36.906Z,99.90
2019-02-27T01:29:05.915Z,99.90
2019-02-27T01:31:34.945Z,99.90
2019-02-27T01:34:04.162Z,99.90
2019-02-27T01:36:33.096Z,99.90
2019-02-27T01:39:02.055Z,99.90
2019-02-27T01:41:30.986Z,99.90
2019-02-27T01:43:59.838Z,99.90
2019-02-27T01:46:28.835Z,99.90
2019-02-27T01:48:57.816Z,99.90
2019-02-27T01:51:28.337Z,99.90
2019-02-27T01:53:57.543Z,99.90
2019-02-27T01:56:28.865Z,99.90
2019-02-27T01:58:57.045Z,99.90
2019-02-27T02:01:29.853Z,99.90
2019-02-27T02:03:56.769Z,99.90
2019-02-27T02:06:25.691Z,99.90
2019-02-27T02:09:30.866Z,99.90
2019-02-27T02:12:00.317Z,99.90
2019-02-27T02:14:47.815Z,99.90
2019-02-27T02:18:25.482Z,99.90
2019-02-27T02:21:32.038Z,99.90
2019-02-27T02:24:37.139Z,99.90
2019-02-27T02:27:27.631Z,99.90
2019-02-27T02:30:38.426Z,99.90
2019-02-27T02:33:49.612Z,99.90
2019-02-27T02:36:46.217Z,99.90
2019-02-27T02:39:58.424Z,99.90
2019-02-27T02:43:17.783Z,99.90
2019-02-27T02:46:09.643Z,99.90
2019-02-27T02:49:09.794Z,99.90
2019-02-27T02:52:05.626Z,99.90
2019-02-27T02:55:21.751Z,99.90
2019-02-27T02:58:01.734Z,99.90
2019-02-27T03:00:58.481Z,99.90
2019-02-27T03:03:36.999Z,99.90
2019-02-27T03:06:43.951Z,99.90
2019-02-27T03:10:00.385Z,99.90
2019-02-27T03:12:58.701Z,99.90
2019-02-27T03:15:51.259Z,99.90
2019-02-27T03:19:05.042Z,99.90
2019-02-27T03:22:12.717Z,99.90
2019-02-27T03:25:13.854Z,99.90
2019-02-27T03:28:21.023Z,99.90
2019-02-27T03:31:32.275Z,99.90
2019-02-27T03:34:50.398Z,99.90
2019-02-27T03:38:02.662Z,99.90
2019-02-27T03:41:12.037Z,99.90
2019-02-27T03:44:20.700Z,99.90
2019-02-27T03:47:22.666Z,99.90
2019-02-27T03:50:32.122Z,99.90
2019-02-27T03:53:47.152Z,99.90
2019-02-27T03:57:08.732Z,99.90
2019-02-27T04:00:20.562Z,99.90
2019-02-27T04:03:23.283Z,99.90
2019-02-27T04:06:32.800Z,99.90
2019-02-27T04:09:02.019Z,99.90
2019-02-27T04:11:31.051Z,99.90
2019-02-27T04:14:04.789Z,99.90
2019-02-27T04:16:31.800Z,99.90
2019-02-27T04:19:04.581Z,99.90
2019-02-27T04:21:31.521Z,99.90
2019-02-27T04:24:00.429Z,99.90
2019-02-27T04:26:29.287Z,99.90
2019-02-27T04:29:04.038Z,99.90
2019-02-27T04:31:30.752Z,99.90
2019-02-27T04:34:00.896Z,99.90
2019-02-27T04:36:30.270Z,99.90
2019-02-27T04:39:00.029Z,99.90
2019-02-27T04:41:29.830Z,99.90
2019-02-27T04:43:58.818Z,99.90
2019-02-27T04:46:27.745Z,99.90
2019-02-27T04:48:56.737Z,99.90
2019-02-27T04:51:25.690Z,99.90
2019-02-27T04:53:54.606Z,99.90
2019-02-27T04:56:23.889Z,99.90
2019-02-27T04:58:52.858Z,99.90
2019-02-27T05:01:21.854Z,99.90
2019-02-27T05:03:50.778Z,99.90
2019-02-27T05:06:19.824Z,99.90
2019-02-27T05:08:49.095Z,99.90
2019-02-27T05:11:17.936Z,99.90
2019-02-27T05:13:46.806Z,99.90
2019-02-27T05:16:15.649Z,99.90
2019-02-27T05:18:44.509Z,99.90
2019-02-27T05:21:13.369Z,99.90
2019-02-27T05:23:42.309Z,99.90
2019-02-27T05:26:11.154Z,99.90
2019-02-27T05:28:40.091Z,99.90
2019-02-27T05:31:09.093Z,99.90
2019-02-27T05:33:39.855Z,99.90
2019-02-27T05:36:08.977Z,99.90
2019-02-27T05:38:37.986Z,99.90
2019-02-27T05:41:07.091Z,99.90
2019-02-27T05:43:36.025Z,99.90
2019-02-27T05:46:05.028Z,99.90
2019-02-27T05:48:33.866Z,99.90
2019-02-27T05:51:04.919Z,99.90
2019-02-27T05:53:33.391Z,99.90
2019-02-27T05:56:02.386Z,99.90
2019-02-27T05:58:31.416Z,99.90
2019-02-27T06:01:02.101Z,99.90
2019-02-27T06:03:30.893Z,99.90
2019-02-27T06:05:59.829Z,99.90
2019-02-27T06:08:29.005Z,99.90
2019-02-27T06:10:57.938Z,99.90
2019-02-27T06:13:26.884Z,99.90
2019-02-27T06:15:55.743Z,99.90
2019-02-27T06:18:24.643Z,99.90
2019-02-27T06:20:53.538Z,99.90
2019-02-27T06:23:22.763Z,99.90
2019-02-27T06:25:51.764Z,99.90
2019-02-27T06:28:21.092Z,99.90
2019-02-27T06:30:50.017Z,99.90
2019-02-27T06:33:19.246Z,99.90
2019-02-27T06:35:49.428Z,99.90
2019-02-27T06:38:18.469Z,99.90
2019-02-27T06:40:47.458Z,99.90
2019-02-27T06:43:16.567Z,99.90
2019-02-27T06:45:46.524Z,99.90
2019-02-27T06:48:15.718Z,99.90
2019-02-27T06:50:44.668Z,99.90
2019-02-27T06:53:16.397Z,99.90
2019-02-27T06:55:44.348Z,99.90
2019-02-27T06:58:14.847Z,99.90
2019-02-27T07:00:44.037Z,99.90
2019-02-27T07:03:12.978Z,99.90
2019-02-27T07:05:41.999Z,99.90
2019-02-27T07:08:10.913Z,99.90
2019-02-27T07:10:39.918Z,99.90
2019-02-27T07:13:08.928Z,99.90
2019-02-27T07:15:37.990Z,99.90
2019-02-27T07:18:07.001Z,99.90
2019-02-27T07:20:36.082Z,99.90
2019-02-27T07:23:05.350Z,99.90
2019-02-27T07:25:34.339Z,99.90
2019-02-27T07:28:03.581Z,99.90
2019-02-27T07:30:32.738Z,99.90
2019-02-27T07:33:03.736Z,99.90
2019-02-27T07:35:32.401Z,99.90
2019-02-27T07:38:01.402Z,99.90
2019-02-27T07:40:30.414Z,99.90
2019-02-27T07:42:59.381Z,99.90
2019-02-27T07:45:28.347Z,99.90
2019-02-27T07:47:57.361Z,99.90
2019-02-27T07:50:26.379Z,98.80
2019-02-27T07:52:55.394Z,98.30
2019-02-27T07:55:26.102Z,97.00
2019-02-27T07:57:58.468Z,94.10
2019-02-27T08:00:26.519Z,93.00
2019-02-27T08:02:56.622Z,90.70
2019-02-27T08:05:29.043Z,90.10
2019-02-27T08:07:59.410Z,90.70
2019-02-27T08:10:31.663Z,89.40
2019-02-27T08:13:05.869Z,85.20
2019-02-27T08:15:40.081Z,82.20
2019-02-27T08:18:29.995Z,84.00
2019-02-27T08:20:54.533Z,78.70
2019-02-27T08:23:24.087Z,76.60
2019-02-27T08:25:53.098Z,74.00
2019-02-27T08:28:22.130Z,70.30
2019-02-27T08:30:51.121Z,71.70
2019-02-27T08:33:20.050Z,68.30
2019-02-27T08:35:49.093Z,70.60
2019-02-27T08:38:17.953Z,65.90
2019-02-27T08:40:46.963Z,64.50
2019-02-27T08:43:15.938Z,65.40
2019-02-27T08:45:44.940Z,62.60
2019-02-27T08:48:17.112Z,67.50
2019-02-27T08:50:44.951Z,54.30
2019-02-27T08:53:13.866Z,53.30
2019-02-27T08:55:43.899Z,52.50
2019-02-27T08:58:12.818Z,51.00
2019-02-27T09:00:42.048Z,49.30
2019-02-27T09:03:20.054Z,46.90
2019-02-27T09:05:42.210Z,45.70
2019-02-27T09:08:11.206Z,51.50
2019-02-27T09:10:40.200Z,44.20
2019-02-27T09:13:09.273Z,45.60
2019-02-27T09:15:38.202Z,49.60
2019-02-27T09:18:07.137Z,44.50
2019-02-27T09:20:36.429Z,43.60
2019-02-27T09:23:05.733Z,39.60
2019-02-27T09:25:34.723Z,45.40
2019-02-27T09:28:09.014Z,38.80
2019-02-27T09:30:34.462Z,40.80
2019-02-27T09:33:03.476Z,39.70
2019-02-27T09:35:37.754Z,38.40
2019-02-27T09:38:03.053Z,43.10
2019-02-27T09:40:32.164Z,36.90
2019-02-27T09:43:01.490Z,38.30
2019-02-27T09:45:31.538Z,34.60
2019-02-27T09:48:00.823Z,36.30
2019-02-27T09:50:40.892Z,35.00
2019-02-27T09:53:10.014Z,34.50
2019-02-27T09:55:39.019Z,34.10
2019-02-27T09:58:11.033Z,36.00
2019-02-27T10:00:41.540Z,34.00
2019-02-27T10:03:10.598Z,34.70
2019-02-27T10:05:40.851Z,35.30
2019-02-27T10:08:10.546Z,33.90
2019-02-27T10:10:39.547Z,36.80
2019-02-27T10:13:08.677Z,36.70
2019-02-27T10:15:38.015Z,34.70
2019-02-27T10:18:07.014Z,36.80
2019-02-27T10:20:37.317Z,35.60
2019-02-27T10:23:06.765Z,39.30
2019-02-27T10:25:35.802Z,36.90
2019-02-27T10:28:04.942Z,38.00
2019-02-27T10:30:34.051Z,34.30
2019-02-27T10:33:03.540Z,36.00
2019-02-27T10:35:34.793Z,34.30
2019-02-27T10:38:03.585Z,37.40
2019-02-27T10:40:32.713Z,34.30
2019-02-27T10:43:02.159Z,34.70
2019-02-27T10:45:31.267Z,36.70
2019-02-27T10:48:00.194Z,34.30
2019-02-27T10:50:29.164Z,36.80
2019-02-27T10:52:58.019Z,36.20
2019-02-27T10:55:27.241Z,33.70
2019-02-27T10:57:56.536Z,31.20
2019-02-27T11:00:32.289Z,34.90
2019-02-27T11:03:01.309Z,34.50
2019-02-27T11:05:31.211Z,33.00
2019-02-27T11:08:00.214Z,32.40
2019-02-27T11:10:29.394Z,32.00
2019-02-27T11:12:58.590Z,33.10
2019-02-27T11:15:27.590Z,32.00
2019-02-27T11:17:56.686Z,32.90
2019-02-27T11:20:25.999Z,34.20
2019-02-27T11:22:55.063Z,31.00
2019-02-27T11:25:24.453Z,31.80
2019-02-27T11:27:53.458Z,31.60
2019-02-27T11:30:24.920Z,33.00
2019-02-27T11:32:56.853Z,32.80
2019-02-27T11:35:25.166Z,33.80
2019-02-27T11:37:54.945Z,33.30
2019-02-27T11:40:24.196Z,33.30
2019-02-27T11:42:53.188Z,35.30
2019-02-27T11:45:24.721Z,34.60
2019-02-27T11:47:53.134Z,35.80
2019-02-27T11:50:22.445Z,36.10
2019-02-27T11:52:51.654Z,36.90
2019-02-27T11:55:20.704Z,37.40
2019-02-27T11:57:49.701Z,38.30
2019-02-27T12:00:23.253Z,38.80
2019-02-27T12:02:52.269Z,39.00
2019-02-27T12:05:21.204Z,40.00
2019-02-27T12:07:51.225Z,40.00
2019-02-27T12:10:22.046Z,40.70
2019-02-27T12:12:51.382Z,40.40
2019-02-27T12:15:20.631Z,41.10
2019-02-27T12:17:49.735Z,41.60
2019-02-27T12:20:20.114Z,41.70
2019-02-27T12:22:49.506Z,42.00
2019-02-27T12:25:19.122Z,42.80
2019-02-27T12:27:50.033Z,43.30
2019-02-27T12:30:19.649Z,43.80
2019-02-27T12:32:48.849Z,43.30
2019-02-27T12:35:22.897Z,44.00
2019-02-27T12:37:51.893Z,44.20
2019-02-27T12:40:24.938Z,44.30
2019-02-27T12:42:52.271Z,44.50
2019-02-27T12:45:22.356Z,44.50
2019-02-27T12:47:51.699Z,45.00
2019-02-27T12:50:21.737Z,44.90
2019-02-27T12:52:51.051Z,44.80
2019-02-27T12:55:20.670Z,45.20
2019-02-27T12:57:52.390Z,45.00
2019-02-27T13:00:23.587Z,44.90
2019-02-27T13:02:52.679Z,45.40
2019-02-27T13:05:26.425Z,45.40
2019-02-27T13:07:52.418Z,45.40
2019-02-27T13:10:21.966Z,45.70
2019-02-27T13:12:51.886Z,45.90
2019-02-27T13:15:22.685Z,46.40
2019-02-27T13:17:56.146Z,47.10
2019-02-27T13:20:24.149Z,47.10
2019-02-27T13:22:53.155Z,47.20
2019-02-27T13:25:24.131Z,47.40
2019-02-27T13:27:52.887Z,47.80
2019-02-27T13:30:22.110Z,47.80
2019-02-27T13:32:51.368Z,47.80
2019-02-27T13:35:22.964Z,47.80
2019-02-27T13:37:51.189Z,47.80
2019-02-27T13:40:20.401Z,48.20
2019-02-27T13:42:52.396Z,47.80
2019-02-27T13:45:24.440Z,48.30
2019-02-27T13:47:53.442Z,48.30
2019-02-27T13:50:26.407Z,47.90
2019-02-27T13:52:53.579Z,48.30
2019-02-27T13:55:22.829Z,48.20
2019-02-27T13:57:51.911Z,47.90
2019-02-27T14:00:26.501Z,48.00
2019-02-27T14:02:55.555Z,48.10
2019-02-27T14:05:25.070Z,48.20
2019-02-27T14:07:58.512Z,47.90
2019-02-27T14:10:26.306Z,48.60
2019-02-27T14:12:55.314Z,48.00
2019-02-27T14:15:27.260Z,48.10
2019-02-27T14:17:55.438Z,48.10
2019-02-27T14:20:26.946Z,48.30
2019-02-27T14:22:55.215Z,48.40
2019-02-27T14:25:28.575Z,48.50
2019-02-27T14:27:55.761Z,48.30
2019-02-27T14:30:35.646Z,47.90
2019-02-27T14:33:04.068Z,48.20
2019-02-27T14:35:36.393Z,48.10
2019-02-27T14:38:03.990Z,48.30
2019-02-27T14:40:37.728Z,48.40
2019-02-27T14:43:04.335Z,48.40
2019-02-27T14:45:33.349Z,48.30
2019-02-27T14:48:02.345Z,48.50
2019-02-27T14:50:34.588Z,48.50
2019-02-27T14:53:02.631Z,48.30
2019-02-27T14:55:31.865Z,48.30
2019-02-27T14:58:01.474Z,48.30
2019-02-27T15:00:30.974Z,48.60
2019-02-27T15:02:59.986Z,48.60
2019-02-27T15:05:29.089Z,48.40
2019-02-27T15:07:58.195Z,48.10
2019-02-27T15:10:27.507Z,47.90
2019-02-27T15:12:56.443Z,48.80
2019-02-27T15:15:27.606Z,48.40
2019-02-27T15:17:56.951Z,48.20
2019-02-27T15:20:26.478Z,48.10
2019-02-27T15:22:55.497Z,48.50
2019-02-27T15:25:24.521Z,49.40
2019-02-27T15:27:58.315Z,49.70
2019-02-27T15:30:26.138Z,51.20
2019-02-27T15:32:55.141Z,51.40
2019-02-27T15:35:24.149Z,51.70
2019-02-27T15:37:54.284Z,51.80
2019-02-27T15:40:28.361Z,52.30
2019-02-27T15:42:55.142Z,52.90
2019-02-27T15:45:24.258Z,53.70
2019-02-27T15:47:53.253Z,54.20
2019-02-27T15:50:23.645Z,54.80
2019-02-27T15:52:52.697Z,55.30
2019-02-27T15:55:21.691Z,55.90
2019-02-27T15:57:53.686Z,56.20
2019-02-27T16:00:22.906Z,56.70
2019-02-27T16:02:52.592Z,57.20
2019-02-27T16:05:21.584Z,57.90
2019-02-27T16:07:50.755Z,58.30
2019-02-27T16:10:20.973Z,59.60
2019-02-27T16:12:50.007Z,60.30
2019-02-27T16:15:20.270Z,61.70
2019-02-27T16:17:49.624Z,61.50
2019-02-27T16:20:19.130Z,61.60
2019-02-27T16:22:48.186Z,62.70
2019-02-27T16:25:19.975Z,64.10
2019-02-27T16:27:49.205Z,63.60
2019-02-27T16:30:23.960Z,64.40
2019-02-27T16:32:52.895Z,64.60
2019-02-27T16:35:22.085Z,65.00
2019-02-27T16:37:56.303Z,64.70
2019-02-27T16:40:22.141Z,65.80
2019-02-27T16:42:51.242Z,65.90
2019-02-27T16:45:22.655Z,66.50
2019-02-27T16:47:53.997Z,68.20
2019-02-27T16:50:24.608Z,68.80
2019-02-27T16:52:54.267Z,68.50
2019-02-27T16:55:23.881Z,68.80
2019-02-27T16:57:56.520Z,69.60
2019-02-27T17:00:26.637Z,70.60
2019-02-27T17:02:57.092Z,71.30
2019-02-27T17:05:26.234Z,71.90
2019-02-27T17:08:00.527Z,72.60
2019-02-27T17:10:29.336Z,74.20
2019-02-27T17:12:58.531Z,74.10
2019-02-27T17:15:27.559Z,75.40
2019-02-27T17:17:56.674Z,76.50
2019-02-27T17:20:25.680Z,77.20
2019-02-27T17:22:54.812Z,76.60
2019-02-27T17:25:29.042Z,76.90
2019-02-27T17:27:54.626Z,77.70
2019-02-27T17:30:26.544Z,79.10
2019-02-27T17:32:55.646Z,80.20
2019-02-27T17:35:24.587Z,81.30
2019-02-27T17:37:53.662Z,82.80
2019-02-27T17:40:22.667Z,83.40
2019-02-27T17:42:53.576Z,85.00
2019-02-27T17:45:22.481Z,85.60
2019-02-27T17:47:51.491Z,86.90
2019-02-27T17:50:20.699Z,87.10
2019-02-27T17:52:49.821Z,87.40
2019-02-27T17:55:18.859Z,90.20
2019-02-27T17:57:47.883Z,90.40
2019-02-27T18:00:28.198Z,91.20
2019-02-27T18:02:56.602Z,91.90
2019-02-27T18:05:26.231Z,92.50
2019-02-27T18:07:55.390Z,92.20
2019-02-27T18:10:24.413Z,92.10
2019-02-27T18:12:53.405Z,92.00
2019-02-27T18:15:22.463Z,92.40
2019-02-27T18:17:51.461Z,93.30
2019-02-27T18:20:24.364Z,93.90
2019-02-27T18:22:51.214Z,94.60
2019-02-27T18:25:20.194Z,94.90
2019-02-27T18:27:49.192Z,95.30
2019-02-27T18:30:18.825Z,94.70
2019-02-27T18:32:48.641Z,95.10
2019-02-27T18:35:17.677Z,95.60
2019-02-27T18:37:46.704Z,96.10
2019-02-27T18:40:15.802Z,96.40
2019-02-27T18:42:44.762Z,96.40
2019-02-27T18:45:16.172Z,97.90
2019-02-27T18:47:45.317Z,96.90
2019-02-27T18:50:14.741Z,96.70
2019-02-27T18:52:43.873Z,96.30
2019-02-27T18:55:13.188Z,97.20
2019-02-27T18:57:45.680Z,97.70
2019-02-27T19:00:16.745Z,99.00
2019-02-27T19:02:45.710Z,97.80
2019-02-27T19:05:15.040Z,98.60
2019-02-27T19:07:44.072Z,98.50
2019-02-27T19:10:14.959Z,98.50
2019-02-27T19:12:44.379Z,98.70
2019-02-27T19:15:15.661Z,98.80
2019-02-27T19:17:44.661Z,99.90
2019-02-27T19:20:15.042Z,99.30
2019-02-27T19:22:44.393Z,98.60
2019-02-27T19:25:14.017Z,99.60
2019-02-27T19:27:43.505Z,99.60
2019-02-27T19:30:14.840Z,99.90
2019-02-27T19:32:43.842Z,99.90
2019-02-27T19:35:13.024Z,99.90
2019-02-27T19:37:42.075Z,99.90
2019-02-27T19:40:13.441Z,99.90
2019-02-27T19:42:49.449Z,99.90
2019-02-27T19:45:18.741Z,99.90
2019-02-27T19:47:49.654Z,99.90
2019-02-27T19:50:18.918Z,99.90
2019-02-27T19:52:48.018Z,99.90
2019-02-27T19:55:18.498Z,99.90
2019-02-27T19:57:47.554Z,99.90
2019-02-27T20:00:18.603Z,99.90
2019-02-27T20:02:47.613Z,99.90
2019-02-27T20:05:19.085Z,99.90
2019-02-27T20:07:48.244Z,99.90
2019-02-27T20:10:17.424Z,99.90
2019-02-27T20:12:47.747Z,99.90
2019-02-27T20:15:17.602Z,99.90
2019-02-27T20:17:46.873Z,99.90
2019-02-27T20:20:17.663Z,99.90
2019-02-27T20:22:46.765Z,99.90
2019-02-27T20:25:17.866Z,99.90
2019-02-27T20:27:46.584Z,99.90
2019-02-27T20:30:17.269Z,99.90
2019-02-27T20:32:46.734Z,99.90
2019-02-27T20:35:17.205Z,99.90
2019-02-27T20:37:46.582Z,99.90
2019-02-27T20:40:15.947Z,99.90
2019-02-27T20:42:49.980Z,99.90
2019-02-27T20:45:16.327Z,99.90
2019-02-27T20:47:45.358Z,99.90
2019-02-27T20:50:20.965Z,99.90
2019-02-27T20:52:49.546Z,99.90
2019-02-27T20:55:18.683Z,99.90
2019-02-27T20:57:47.705Z,99.90
2019-02-27T21:00:16.785Z,99.90
2019-02-27T21:02:45.838Z,99.90
2019-02-27T21:05:14.942Z,99.90
2019-02-27T21:07:44.817Z,99.90
2019-02-27T21:10:19.914Z,99.90
2019-02-27T21:12:54.064Z,99.90
2019-02-27T21:15:17.497Z,99.90
2019-02-27T21:17:47.514Z,99.90
2019-02-27T21:20:16.728Z,99.90
2019-02-27T21:22:45.711Z,99.90
2019-02-27T21:25:14.901Z,99.90
2019-02-27T21:27:44.944Z,99.90
2019-02-27T21:30:18.850Z,99.90
2019-02-27T21:32:46.335Z,99.90
2019-02-27T21:35:15.682Z,99.90
2019-02-27T21:37:45.630Z,99.90
2019-02-27T21:40:15.335Z,99.90
2019-02-27T21:42:44.352Z,99.90
2019-02-27T21:45:15.190Z,99.90
2019-02-27T21:47:44.109Z,99.90
2019-02-27T21:50:14.952Z,99.90
2019-02-27T21:52:43.956Z,99.90
2019-02-27T21:55:13.774Z,99.90
2019-02-27T21:57:42.877Z,99.90
2019-02-27T22:00:20.821Z,99.90
2019-02-27T22:02:49.909Z,99.90
2019-02-27T22:05:19.779Z,99.90
2019-02-27T22:07:49.054Z,99.90
2019-02-27T22:10:19.493Z,99.90
2019-02-27T22:12:48.833Z,99.90
2019-02-27T22:15:22.863Z,99.90
2019-02-27T22:17:50.933Z,99.90
2019-02-27T22:20:19.942Z,99.90
2019-02-27T22:22:48.965Z,99.90
2019-02-27T22:25:17.969Z,99.90
2019-02-27T22:27:46.978Z,99.90
2019-02-27T22:30:16.891Z,99.90
2019-02-27T22:32:48.134Z,99.90
2019-02-27T22:35:17.020Z,99.90
2019-02-27T22:37:51.110Z,99.90
2019-02-27T22:40:16.939Z,99.90
2019-02-27T22:42:48.420Z,99.90
2019-02-27T22:45:17.903Z,99.90
2019-02-27T22:47:46.897Z,99.90
2019-02-27T22:50:16.354Z,99.90
2019-02-27T22:52:45.355Z,99.90
2019-02-27T22:55:14.907Z,99.90
2019-02-27T22:57:43.822Z,99.90
2019-02-27T23:01:02.439Z,99.90
2019-02-27T23:03:34.126Z,99.90
2019-02-27T23:06:03.702Z,99.90
2019-02-27T23:08:32.721Z,99.90
2019-02-27T23:11:02.981Z,99.90
2019-02-27T23:13:32.830Z,99.90
2019-02-27T23:16:01.842Z,99.90
2019-02-27T23:18:31.485Z,99.90
2019-02-27T23:21:00.807Z,99.90
2019-02-27T23:23:29.825Z,99.90
2019-02-27T23:25:58.815Z,99.90
2019-02-27T23:28:28.113Z,99.90
2019-02-27T23:30:57.074Z,99.90
2019-02-27T23:33:26.057Z,99.90
2019-02-27T23:35:55.057Z,99.90
2019-02-27T23:38:23.923Z,99.90
2019-02-27T23:40:52.913Z,99.90
2019-02-27T23:43:21.904Z,99.90
2019-02-27T23:45:50.929Z,99.90
2019-02-27T23:48:19.837Z,99.90
2019-02-27T23:50:48.849Z,99.90
2019-02-27T23:53:17.844Z,99.90
2019-02-27T23:55:46.863Z,99.90
2019-02-27T23:58:15.773Z,99.90
